»·PEaware :: N292MC 1L1-2O7

N292MC :: 1L1-2O7

FLIGHT INFORMATION

Flight Status: Arrived
Operator: Privately registered:
United States
More flights under this callsign
Pilot: Maurice C. (12314)
Aircraft: Unknown
(KODI)
More flights by this aircraft type
Origin: 1L1 Lincoln Co
United States
Destination: 2O7 Independence
United States
More flights between these airports :: More routes between these airports
Route: TPH BIH
File this flight plan on PilotEdge
Remarks: ALPHABET CHALLENGE
Altitude:
(Current/Filed)
12,500ft
Speed:
(Current/Filed)
180kts
Departed: 14-Apr-20 02:29 PM
Arrived: 14-Apr-20 03:43 PM
Distance/Time
Traveled:
190nm/1:14
Distance/Time
To Go:
Arrived

Flight Plot

Page will automatically refresh every two minutes.

Flight plan parsing failed; only flown route is shown


Map Options




Map Legend


Flown Route
Filed Route
Departure Airport
Arrival Airport
Navaid (VOR, NDB)
Fix

Horizontal Profiles

Position Reports

Time Latitude Longitude Heading Altitude Ground
Speed
14-Apr-20 13:57 47.658243 -122.733409 98 527ft 0kts
14-Apr-20 13:58 47.658243 -122.733409 98 527ft 0kts
14-Apr-20 13:59 47.658243 -122.733409 98 527ft 0kts
14-Apr-20 14:08 47.658243 -122.733409 98 527ft 0kts
14-Apr-20 14:09 47.658243 -122.733409 98 527ft 0kts
14-Apr-20 14:10 47.661366 -122.732697 181 509ft 0kts
14-Apr-20 14:11 47.661366 -122.732697 181 509ft 0kts
14-Apr-20 14:12 47.661366 -122.732697 181 509ft 0kts
14-Apr-20 14:13 47.661366 -122.732697 181 509ft 0kts
14-Apr-20 14:14 47.661366 -122.732697 181 509ft 0kts
14-Apr-20 14:15 47.661365 -122.732697 181 509ft 0kts
14-Apr-20 14:16 47.661365 -122.732697 182 509ft 0kts
14-Apr-20 14:17 47.661211 -122.732584 120 510ft 0kts
14-Apr-20 14:18 47.661211 -122.732584 120 510ft 0kts
14-Apr-20 14:19 47.661211 -122.732584 120 510ft 0kts
14-Apr-20 14:20 37.793521 -114.419571 182 4842ft 0kts
14-Apr-20 14:21 37.793521 -114.419571 182 4842ft 0kts
14-Apr-20 14:22 37.793521 -114.419571 182 4842ft 0kts
14-Apr-20 14:23 37.793129 -114.419604 186 4842ft 1kts
14-Apr-20 14:24 37.793108 -114.419607 185 4841ft 0kts
14-Apr-20 14:25 37.791255 -114.419676 181 4837ft 17kts
14-Apr-20 14:26 37.786317 -114.420042 183 4820ft 8kts
14-Apr-20 14:27 37.783538 -114.420304 123 4811ft 1kts
14-Apr-20 14:28 37.795444 -114.418682 6 5156ft 105kts
14-Apr-20 14:29 37.809317 -114.457686 270 5981ft 170kts
14-Apr-20 14:30 37.805273 -114.519547 262 7079ft 180kts
14-Apr-20 14:31 37.809383 -114.582703 279 8174ft 182kts
14-Apr-20 14:32 37.815815 -114.646518 278 9234ft 184kts
14-Apr-20 14:33 37.821878 -114.707591 279 10526ft 178kts
14-Apr-20 14:34 37.827972 -114.769344 280 11898ft 176kts
14-Apr-20 14:35 37.834455 -114.833735 280 12549ft 201kts
14-Apr-20 14:36 37.842118 -114.905382 280 12538ft 207kts
14-Apr-20 14:37 37.849158 -114.978051 280 12534ft 208kts
14-Apr-20 14:38 37.856224 -115.050662 280 12518ft 207kts
14-Apr-20 14:39 37.863173 -115.123140 280 12513ft 207kts
14-Apr-20 14:40 37.868898 -115.195914 281 12507ft 207kts
14-Apr-20 14:41 37.875864 -115.268309 281 12503ft 207kts
14-Apr-20 14:42 37.882722 -115.340726 280 12497ft 207kts
14-Apr-20 14:43 37.889483 -115.412981 281 12494ft 206kts
14-Apr-20 14:44 37.896210 -115.485116 281 12490ft 206kts
14-Apr-20 14:45 37.902920 -115.557450 281 12483ft 206kts
14-Apr-20 14:46 37.909540 -115.629432 281 12476ft 206kts
14-Apr-20 14:47 37.915889 -115.699014 280 12543ft 205kts
14-Apr-20 14:48 37.922459 -115.771127 280 12554ft 205kts
14-Apr-20 14:49 37.928915 -115.843368 280 12560ft 206kts
14-Apr-20 14:50 37.935378 -115.915593 280 12574ft 206kts
14-Apr-20 14:51 37.941839 -115.987971 280 12566ft 207kts
14-Apr-20 14:52 37.948243 -116.060383 280 12561ft 207kts
14-Apr-20 14:53 37.954552 -116.132892 280 12558ft 207kts
14-Apr-20 14:54 37.960840 -116.205223 280 12552ft 206kts
14-Apr-20 14:55 37.967115 -116.277779 280 12547ft 206kts
14-Apr-20 14:56 37.973314 -116.350001 280 12541ft 203kts
14-Apr-20 14:57 37.979206 -116.419636 281 12539ft 196kts
14-Apr-20 14:58 37.985023 -116.488156 280 12535ft 195kts
14-Apr-20 14:59 37.990730 -116.556724 280 12530ft 196kts
14-Apr-20 15:00 37.996458 -116.625339 280 12528ft 195kts
14-Apr-20 15:01 38.001986 -116.692055 280 12589ft 194kts
14-Apr-20 15:02 38.007598 -116.760522 280 12583ft 195kts
14-Apr-20 15:03 38.013132 -116.828817 280 12577ft 195kts
14-Apr-20 15:04 38.018689 -116.897187 280 12572ft 195kts
14-Apr-20 15:05 38.024177 -116.965731 280 12540ft 195kts
14-Apr-20 15:06 38.029603 -117.033861 278 12535ft 195kts
14-Apr-20 15:07 38.001102 -117.094124 232 12560ft 209kts
14-Apr-20 15:08 37.970542 -117.156005 242 12526ft 207kts
14-Apr-20 15:09 37.940467 -117.218148 242 12511ft 207kts
14-Apr-20 15:10 37.910498 -117.280194 242 12499ft 207kts
14-Apr-20 15:11 37.880335 -117.342437 242 12494ft 207kts
14-Apr-20 15:12 37.850296 -117.404265 242 12491ft 206kts
14-Apr-20 15:13 37.820270 -117.466054 242 12485ft 206kts
14-Apr-20 15:14 37.790133 -117.527876 242 12480ft 206kts
14-Apr-20 15:16 37.759971 -117.589609 242 12476ft 206kts
14-Apr-20 15:17 37.730420 -117.650134 241 12471ft 206kts
14-Apr-20 15:18 37.700540 -117.711001 241 12524ft 206kts
14-Apr-20 15:19 37.670359 -117.772577 241 12520ft 206kts
14-Apr-20 15:20 37.640139 -117.833925 241 12515ft 206kts
14-Apr-20 15:21 37.609781 -117.895568 241 12512ft 206kts
14-Apr-20 15:22 37.579493 -117.956957 241 12506ft 206kts
14-Apr-20 15:23 37.549078 -118.018358 242 12502ft 206kts
14-Apr-20 15:24 37.518591 -118.079936 242 12497ft 207kts
14-Apr-20 15:25 37.488062 -118.141417 242 12490ft 207kts
14-Apr-20 15:26 37.457473 -118.202868 242 12487ft 207kts
14-Apr-20 15:27 37.426857 -118.264351 241 12481ft 207kts
14-Apr-20 15:28 37.394719 -118.324583 220 12472ft 214kts
14-Apr-20 15:29 37.337151 -118.317245 158 12189ft 227kts
14-Apr-20 15:30 37.274551 -118.308453 169 11224ft 210kts
14-Apr-20 15:31 37.221074 -118.295366 169 10302ft 188kts
14-Apr-20 15:32 37.169067 -118.283661 169 9398ft 202kts
14-Apr-20 15:32 37.122038 -118.273082 169 8610ft 208kts
14-Apr-20 15:34 37.055720 -118.258143 169 7554ft 207kts
14-Apr-20 15:35 36.999093 -118.245386 169 6633ft 208kts
14-Apr-20 15:35 36.953537 -118.234753 163 5832ft 185kts
14-Apr-20 15:36 36.908419 -118.213904 158 5436ft 159kts
14-Apr-20 15:38 36.859381 -118.191111 158 4901ft 159kts
14-Apr-20 15:38 36.831049 -118.176501 155 4860ft 108kts
14-Apr-20 15:39 36.804137 -118.162976 177 4629ft 106kts
14-Apr-20 15:41 36.798742 -118.195407 330 4242ft 101kts
14-Apr-20 15:41 36.814869 -118.204119 340 3903ft 44kts
14-Apr-20 15:42 36.818346 -118.205649 163 3903ft 27kts
14-Apr-20 15:43 36.812186 -118.202723 169 3903ft 21kts
14-Apr-20 15:44 36.810004 -118.203006 243 3903ft 9kts
14-Apr-20 15:45 36.810066 -118.203388 335 3903ft 0kts
14-Apr-20 15:46 36.810066 -118.203388 335 3903ft 0kts
14-Apr-20 15:47 36.810066 -118.203388 335 3903ft 0kts

Navigation Log

Ident Type
Flight plan parsing failed, navigation log unavailable